sensor_id;sensor_type;location;lat;lon;timestamp;P1;durP1;ratioP1;P2;durP2;ratioP2
7398;SDS011;3740;50.700;7.184;2023-12-28T00:02:24;3.50;;;2.60;;
7398;SDS011;3740;50.700;7.184;2023-12-28T00:04:49;2.77;;;2.57;;
7398;SDS011;3740;50.700;7.184;2023-12-28T00:07:15;3.63;;;2.80;;
7398;SDS011;3740;50.700;7.184;2023-12-28T00:09:40;2.57;;;2.37;;
7398;SDS011;3740;50.700;7.184;2023-12-28T00:12:06;2.70;;;2.50;;
7398;SDS011;3740;50.700;7.184;2023-12-28T00:14:31;2.57;;;2.33;;
7398;SDS011;3740;50.700;7.184;2023-12-28T00:16:57;3.10;;;2.50;;
7398;SDS011;3740;50.700;7.184;2023-12-28T00:19:22;4.50;;;2.80;;
7398;SDS011;3740;50.700;7.184;2023-12-28T00:21:48;3.17;;;2.83;;
7398;SDS011;3740;50.700;7.184;2023-12-28T00:24:15;4.03;;;2.80;;
7398;SDS011;3740;50.700;7.184;2023-12-28T00:26:41;2.80;;;2.60;;
7398;SDS011;3740;50.700;7.184;2023-12-28T00:29:06;3.10;;;2.80;;
7398;SDS011;3740;50.700;7.184;2023-12-28T00:31:32;2.63;;;2.40;;
7398;SDS011;3740;50.700;7.184;2023-12-28T00:33:57;3.20;;;2.90;;
7398;SDS011;3740;50.700;7.184;2023-12-28T00:36:23;2.77;;;2.57;;
7398;SDS011;3740;50.700;7.184;2023-12-28T00:38:48;2.93;;;2.73;;
7398;SDS011;3740;50.700;7.184;2023-12-28T00:41:14;2.80;;;2.60;;
7398;SDS011;3740;50.700;7.184;2023-12-28T00:43:39;3.37;;;2.70;;
7398;SDS011;3740;50.700;7.184;2023-12-28T00:46:05;2.97;;;2.70;;
7398;SDS011;3740;50.700;7.184;2023-12-28T00:48:30;3.20;;;2.27;;
7398;SDS011;3740;50.700;7.184;2023-12-28T00:50:56;3.17;;;2.30;;
7398;SDS011;3740;50.700;7.184;2023-12-28T00:53:24;2.70;;;2.50;;
7398;SDS011;3740;50.700;7.184;2023-12-28T00:55:50;2.73;;;2.33;;
7398;SDS011;3740;50.700;7.184;2023-12-28T00:58:16;2.80;;;2.50;;
7398;SDS011;3740;50.700;7.184;2023-12-28T01:00:41;2.50;;;2.30;;
7398;SDS011;3740;50.700;7.184;2023-12-28T01:03:07;2.23;;;2.13;;
7398;SDS011;3740;50.700;7.184;2023-12-28T01:05:33;2.87;;;2.20;;
7398;SDS011;3740;50.700;7.184;2023-12-28T01:07:58;2.50;;;2.30;;
7398;SDS011;3740;50.700;7.184;2023-12-28T01:10:24;2.63;;;2.43;;
7398;SDS011;3740;50.700;7.184;2023-12-28T01:12:49;2.73;;;2.30;;
7398;SDS011;3740;50.700;7.184;2023-12-28T01:15:15;2.37;;;2.17;;
7398;SDS011;3740;50.700;7.184;2023-12-28T01:17:42;2.23;;;2.13;;
7398;SDS011;3740;50.700;7.184;2023-12-28T01:20:08;2.83;;;2.30;;
7398;SDS011;3740;50.700;7.184;2023-12-28T01:22:34;2.70;;;2.43;;
7398;SDS011;3740;50.700;7.184;2023-12-28T01:25:00;2.33;;;2.13;;
7398;SDS011;3740;50.700;7.184;2023-12-28T01:27:25;2.53;;;2.33;;
7398;SDS011;3740;50.700;7.184;2023-12-28T01:29:51;2.73;;;2.37;;
7398;SDS011;3740;50.700;7.184;2023-12-28T01:32:16;2.63;;;2.43;;
7398;SDS011;3740;50.700;7.184;2023-12-28T01:34:42;2.57;;;2.07;;
7398;SDS011;3740;50.700;7.184;2023-12-28T01:37:08;2.20;;;2.00;;
7398;SDS011;3740;50.700;7.184;2023-12-28T01:39:33;2.10;;;2.00;;
7398;SDS011;3740;50.700;7.184;2023-12-28T01:41:59;2.30;;;2.10;;
7398;SDS011;3740;50.700;7.184;2023-12-28T01:44:24;2.57;;;2.30;;
7398;SDS011;3740;50.700;7.184;2023-12-28T01:46:50;2.47;;;2.27;;
7398;SDS011;3740;50.700;7.184;2023-12-28T01:49:15;2.13;;;2.00;;
7398;SDS011;3740;50.700;7.184;2023-12-28T01:51:41;2.60;;;2.40;;
7398;SDS011;3740;50.700;7.184;2023-12-28T01:54:09;2.50;;;2.30;;
7398;SDS011;3740;50.700;7.184;2023-12-28T01:56:35;2.93;;;2.50;;
7398;SDS011;3740;50.700;7.184;2023-12-28T01:59:00;2.47;;;2.27;;
7398;SDS011;3740;50.700;7.184;2023-12-28T02:01:26;2.80;;;2.60;;
7398;SDS011;3740;50.700;7.184;2023-12-28T02:03:52;2.03;;;1.93;;
7398;SDS011;3740;50.700;7.184;2023-12-28T02:06:19;2.63;;;2.33;;
7398;SDS011;3740;50.700;7.184;2023-12-28T02:08:48;2.90;;;2.10;;
7398;SDS011;3740;50.700;7.184;2023-12-28T02:11:14;2.40;;;2.20;;
7398;SDS011;3740;50.700;7.184;2023-12-28T02:13:39;2.77;;;2.30;;
7398;SDS011;3740;50.700;7.184;2023-12-28T02:16:13;2.10;;;1.90;;
7398;SDS011;3740;50.700;7.184;2023-12-28T02:18:47;2.00;;;1.90;;
7398;SDS011;3740;50.700;7.184;2023-12-28T02:21:16;2.40;;;1.90;;
7398;SDS011;3740;50.700;7.184;2023-12-28T02:23:46;2.00;;;1.90;;
7398;SDS011;3740;50.700;7.184;2023-12-28T02:26:13;2.83;;;2.17;;
7398;SDS011;3740;50.700;7.184;2023-12-28T02:28:39;2.30;;;2.10;;
7398;SDS011;3740;50.700;7.184;2023-12-28T02:31:04;2.50;;;2.30;;
7398;SDS011;3740;50.700;7.184;2023-12-28T02:33:34;2.10;;;1.90;;
7398;SDS011;3740;50.700;7.184;2023-12-28T02:36:09;2.07;;;1.83;;
7398;SDS011;3740;50.700;7.184;2023-12-28T02:38:37;2.03;;;1.80;;
7398;SDS011;3740;50.700;7.184;2023-12-28T02:41:04;1.97;;;1.83;;
7398;SDS011;3740;50.700;7.184;2023-12-28T02:43:30;2.00;;;1.87;;
7398;SDS011;3740;50.700;7.184;2023-12-28T02:45:56;2.07;;;1.90;;
7398;SDS011;3740;50.700;7.184;2023-12-28T02:48:22;1.80;;;1.70;;
7398;SDS011;3740;50.700;7.184;2023-12-28T02:50:48;1.87;;;1.77;;
7398;SDS011;3740;50.700;7.184;2023-12-28T02:53:13;1.67;;;1.50;;
7398;SDS011;3740;50.700;7.184;2023-12-28T02:55:39;2.00;;;1.43;;
7398;SDS011;3740;50.700;7.184;2023-12-28T02:58:04;1.77;;;1.67;;
7398;SDS011;3740;50.700;7.184;2023-12-28T03:00:30;1.90;;;1.80;;
7398;SDS011;3740;50.700;7.184;2023-12-28T03:02:56;2.00;;;1.90;;
7398;SDS011;3740;50.700;7.184;2023-12-28T03:05:22;2.20;;;2.00;;
7398;SDS011;3740;50.700;7.184;2023-12-28T03:07:47;1.93;;;1.83;;
7398;SDS011;3740;50.700;7.184;2023-12-28T03:10:13;1.80;;;1.70;;
7398;SDS011;3740;50.700;7.184;2023-12-28T03:12:38;2.10;;;1.67;;
7398;SDS011;3740;50.700;7.184;2023-12-28T03:15:04;1.67;;;1.57;;
7398;SDS011;3740;50.700;7.184;2023-12-28T03:17:30;2.17;;;2.00;;
7398;SDS011;3740;50.700;7.184;2023-12-28T03:19:58;1.90;;;1.80;;
7398;SDS011;3740;50.700;7.184;2023-12-28T03:22:24;2.20;;;1.93;;
7398;SDS011;3740;50.700;7.184;2023-12-28T03:24:49;2.30;;;2.10;;
7398;SDS011;3740;50.700;7.184;2023-12-28T03:27:15;2.33;;;2.13;;
7398;SDS011;3740;50.700;7.184;2023-12-28T03:29:41;2.33;;;2.13;;
7398;SDS011;3740;50.700;7.184;2023-12-28T03:32:08;2.03;;;1.90;;
7398;SDS011;3740;50.700;7.184;2023-12-28T03:34:33;1.73;;;1.63;;
7398;SDS011;3740;50.700;7.184;2023-12-28T03:36:59;2.73;;;2.00;;
7398;SDS011;3740;50.700;7.184;2023-12-28T03:39:25;2.30;;;2.10;;
7398;SDS011;3740;50.700;7.184;2023-12-28T03:41:51;1.97;;;1.87;;
7398;SDS011;3740;50.700;7.184;2023-12-28T03:44:20;2.57;;;2.37;;
7398;SDS011;3740;50.700;7.184;2023-12-28T03:46:49;2.20;;;2.00;;
7398;SDS011;3740;50.700;7.184;2023-12-28T03:49:16;2.87;;;2.37;;
7398;SDS011;3740;50.700;7.184;2023-12-28T03:51:46;2.27;;;2.07;;
7398;SDS011;3740;50.700;7.184;2023-12-28T03:54:18;2.47;;;2.23;;
7398;SDS011;3740;50.700;7.184;2023-12-28T03:56:44;2.17;;;2.00;;
7398;SDS011;3740;50.700;7.184;2023-12-28T03:59:10;3.07;;;2.37;;
7398;SDS011;3740;50.700;7.184;2023-12-28T04:01:36;2.47;;;2.20;;
7398;SDS011;3740;50.700;7.184;2023-12-28T04:04:01;2.60;;;2.40;;
7398;SDS011;3740;50.700;7.184;2023-12-28T04:06:27;2.50;;;2.30;;
7398;SDS011;3740;50.700;7.184;2023-12-28T04:08:53;2.30;;;2.10;;
7398;SDS011;3740;50.700;7.184;2023-12-28T04:11:19;2.33;;;2.10;;
7398;SDS011;3740;50.700;7.184;2023-12-28T04:13:44;3.70;;;2.40;;
7398;SDS011;3740;50.700;7.184;2023-12-28T04:16:13;2.57;;;2.37;;
7398;SDS011;3740;50.700;7.184;2023-12-28T04:18:42;2.50;;;2.30;;
7398;SDS011;3740;50.700;7.184;2023-12-28T04:21:09;2.67;;;2.47;;
7398;SDS011;3740;50.700;7.184;2023-12-28T04:23:36;2.30;;;2.20;;
7398;SDS011;3740;50.700;7.184;2023-12-28T04:26:02;2.73;;;2.10;;
7398;SDS011;3740;50.700;7.184;2023-12-28T04:28:28;2.67;;;2.40;;
7398;SDS011;3740;50.700;7.184;2023-12-28T04:30:53;3.63;;;2.50;;
7398;SDS011;3740;50.700;7.184;2023-12-28T04:33:19;2.50;;;2.30;;
7398;SDS011;3740;50.700;7.184;2023-12-28T04:35:44;3.73;;;2.53;;
7398;SDS011;3740;50.700;7.184;2023-12-28T04:38:10;3.40;;;2.67;;
7398;SDS011;3740;50.700;7.184;2023-12-28T04:40:36;2.67;;;2.30;;
7398;SDS011;3740;50.700;7.184;2023-12-28T04:43:01;2.57;;;2.37;;
7398;SDS011;3740;50.700;7.184;2023-12-28T04:45:27;2.40;;;2.20;;
7398;SDS011;3740;50.700;7.184;2023-12-28T04:47:53;4.17;;;2.87;;
7398;SDS011;3740;50.700;7.184;2023-12-28T04:50:19;2.93;;;2.57;;
7398;SDS011;3740;50.700;7.184;2023-12-28T04:52:44;2.70;;;2.50;;
7398;SDS011;3740;50.700;7.184;2023-12-28T04:55:10;3.37;;;2.50;;
7398;SDS011;3740;50.700;7.184;2023-12-28T04:57:35;3.33;;;2.80;;
7398;SDS011;3740;50.700;7.184;2023-12-28T05:00:01;3.07;;;2.63;;
7398;SDS011;3740;50.700;7.184;2023-12-28T05:02:28;3.63;;;2.40;;
7398;SDS011;3740;50.700;7.184;2023-12-28T05:04:53;2.73;;;2.20;;
7398;SDS011;3740;50.700;7.184;2023-12-28T05:07:19;3.13;;;2.80;;
7398;SDS011;3740;50.700;7.184;2023-12-28T05:09:44;2.40;;;2.20;;
7398;SDS011;3740;50.700;7.184;2023-12-28T05:12:10;2.67;;;2.43;;
7398;SDS011;3740;50.700;7.184;2023-12-28T05:14:36;2.90;;;2.40;;
7398;SDS011;3740;50.700;7.184;2023-12-28T05:17:01;3.53;;;2.63;;
7398;SDS011;3740;50.700;7.184;2023-12-28T05:19:27;3.20;;;2.40;;
7398;SDS011;3740;50.700;7.184;2023-12-28T05:21:52;3.47;;;2.40;;
7398;SDS011;3740;50.700;7.184;2023-12-28T05:24:18;2.90;;;2.70;;
7398;SDS011;3740;50.700;7.184;2023-12-28T05:26:43;3.17;;;2.50;;
7398;SDS011;3740;50.700;7.184;2023-12-28T05:29:09;3.60;;;2.40;;
7398;SDS011;3740;50.700;7.184;2023-12-28T05:31:34;2.33;;;2.13;;
7398;SDS011;3740;50.700;7.184;2023-12-28T05:34:00;3.23;;;2.40;;
7398;SDS011;3740;50.700;7.184;2023-12-28T05:36:25;3.27;;;2.63;;
7398;SDS011;3740;50.700;7.184;2023-12-28T05:38:51;3.07;;;2.50;;
7398;SDS011;3740;50.700;7.184;2023-12-28T05:41:17;2.97;;;2.67;;
7398;SDS011;3740;50.700;7.184;2023-12-28T05:43:42;3.43;;;2.70;;
7398;SDS011;3740;50.700;7.184;2023-12-28T05:46:08;2.80;;;2.53;;
7398;SDS011;3740;50.700;7.184;2023-12-28T05:48:33;2.90;;;2.60;;
7398;SDS011;3740;50.700;7.184;2023-12-28T05:50:59;2.73;;;2.53;;
7398;SDS011;3740;50.700;7.184;2023-12-28T05:53:25;3.63;;;2.70;;
7398;SDS011;3740;50.700;7.184;2023-12-28T05:55:51;3.47;;;2.70;;
7398;SDS011;3740;50.700;7.184;2023-12-28T05:58:17;3.73;;;2.63;;
7398;SDS011;3740;50.700;7.184;2023-12-28T06:00:42;2.87;;;2.33;;
7398;SDS011;3740;50.700;7.184;2023-12-28T06:03:08;2.87;;;2.20;;
7398;SDS011;3740;50.700;7.184;2023-12-28T06:05:34;3.63;;;2.70;;
7398;SDS011;3740;50.700;7.184;2023-12-28T06:07:59;2.87;;;2.60;;
7398;SDS011;3740;50.700;7.184;2023-12-28T06:10:25;4.87;;;2.70;;
7398;SDS011;3740;50.700;7.184;2023-12-28T06:12:50;3.60;;;2.60;;
7398;SDS011;3740;50.700;7.184;2023-12-28T06:15:16;3.27;;;2.67;;
7398;SDS011;3740;50.700;7.184;2023-12-28T06:17:42;2.50;;;2.30;;
7398;SDS011;3740;50.700;7.184;2023-12-28T06:20:07;3.33;;;2.40;;
7398;SDS011;3740;50.700;7.184;2023-12-28T06:22:36;3.70;;;2.60;;
7398;SDS011;3740;50.700;7.184;2023-12-28T06:25:02;3.30;;;2.70;;
7398;SDS011;3740;50.700;7.184;2023-12-28T06:27:28;2.40;;;2.20;;
7398;SDS011;3740;50.700;7.184;2023-12-28T06:29:54;2.50;;;2.10;;
7398;SDS011;3740;50.700;7.184;2023-12-28T06:32:20;2.40;;;2.13;;
7398;SDS011;3740;50.700;7.184;2023-12-28T06:34:45;3.13;;;2.23;;
7398;SDS011;3740;50.700;7.184;2023-12-28T06:37:11;4.00;;;2.87;;
7398;SDS011;3740;50.700;7.184;2023-12-28T06:39:37;2.63;;;2.40;;
7398;SDS011;3740;50.700;7.184;2023-12-28T06:42:03;3.13;;;2.47;;
7398;SDS011;3740;50.700;7.184;2023-12-28T06:44:29;4.10;;;2.70;;
7398;SDS011;3740;50.700;7.184;2023-12-28T06:46:54;4.70;;;2.87;;
7398;SDS011;3740;50.700;7.184;2023-12-28T06:49:20;3.33;;;2.70;;
7398;SDS011;3740;50.700;7.184;2023-12-28T06:51:45;4.23;;;2.43;;
7398;SDS011;3740;50.700;7.184;2023-12-28T06:54:11;3.10;;;2.63;;
7398;SDS011;3740;50.700;7.184;2023-12-28T06:56:37;3.23;;;2.53;;
7398;SDS011;3740;50.700;7.184;2023-12-28T06:59:02;4.40;;;2.80;;
7398;SDS011;3740;50.700;7.184;2023-12-28T07:01:28;3.03;;;2.47;;
7398;SDS011;3740;50.700;7.184;2023-12-28T07:03:53;3.50;;;2.37;;
7398;SDS011;3740;50.700;7.184;2023-12-28T07:06:19;2.90;;;2.60;;
7398;SDS011;3740;50.700;7.184;2023-12-28T07:08:45;4.23;;;2.87;;
7398;SDS011;3740;50.700;7.184;2023-12-28T07:11:10;2.53;;;2.27;;
7398;SDS011;3740;50.700;7.184;2023-12-28T07:13:36;2.67;;;2.40;;
7398;SDS011;3740;50.700;7.184;2023-12-28T07:16:02;2.87;;;2.57;;
7398;SDS011;3740;50.700;7.184;2023-12-28T07:18:28;2.80;;;2.60;;
7398;SDS011;3740;50.700;7.184;2023-12-28T07:20:54;2.73;;;2.30;;
7398;SDS011;3740;50.700;7.184;2023-12-28T07:23:20;4.03;;;2.70;;
7398;SDS011;3740;50.700;7.184;2023-12-28T07:25:45;3.93;;;2.70;;
7398;SDS011;3740;50.700;7.184;2023-12-28T07:28:11;4.93;;;2.93;;
7398;SDS011;3740;50.700;7.184;2023-12-28T07:30:37;4.83;;;3.10;;
7398;SDS011;3740;50.700;7.184;2023-12-28T07:33:03;3.00;;;2.57;;
7398;SDS011;3740;50.700;7.184;2023-12-28T07:35:29;4.13;;;2.77;;
7398;SDS011;3740;50.700;7.184;2023-12-28T07:37:54;3.53;;;2.67;;
7398;SDS011;3740;50.700;7.184;2023-12-28T07:40:20;3.13;;;2.73;;
7398;SDS011;3740;50.700;7.184;2023-12-28T07:42:46;4.23;;;2.70;;
7398;SDS011;3740;50.700;7.184;2023-12-28T07:45:11;3.47;;;2.47;;
7398;SDS011;3740;50.700;7.184;2023-12-28T07:47:37;3.13;;;2.70;;
7398;SDS011;3740;50.700;7.184;2023-12-28T07:50:02;3.30;;;2.30;;
7398;SDS011;3740;50.700;7.184;2023-12-28T07:52:28;4.07;;;2.70;;
7398;SDS011;3740;50.700;7.184;2023-12-28T07:54:54;4.20;;;2.60;;
7398;SDS011;3740;50.700;7.184;2023-12-28T07:57:20;5.17;;;2.67;;
7398;SDS011;3740;50.700;7.184;2023-12-28T07:59:46;4.50;;;2.63;;
7398;SDS011;3740;50.700;7.184;2023-12-28T08:02:11;3.50;;;2.60;;
7398;SDS011;3740;50.700;7.184;2023-12-28T08:04:37;3.40;;;2.60;;
7398;SDS011;3740;50.700;7.184;2023-12-28T08:07:02;4.73;;;2.63;;
7398;SDS011;3740;50.700;7.184;2023-12-28T08:09:29;4.97;;;2.70;;
7398;SDS011;3740;50.700;7.184;2023-12-28T08:11:55;3.97;;;2.80;;
7398;SDS011;3740;50.700;7.184;2023-12-28T08:14:21;3.70;;;2.63;;
7398;SDS011;3740;50.700;7.184;2023-12-28T08:16:46;4.90;;;2.67;;
7398;SDS011;3740;50.700;7.184;2023-12-28T08:19:12;6.13;;;2.70;;
7398;SDS011;3740;50.700;7.184;2023-12-28T08:21:38;5.43;;;2.73;;
7398;SDS011;3740;50.700;7.184;2023-12-28T08:24:03;4.27;;;2.80;;
7398;SDS011;3740;50.700;7.184;2023-12-28T08:26:29;3.63;;;2.67;;
7398;SDS011;3740;50.700;7.184;2023-12-28T08:28:57;3.53;;;2.60;;
7398;SDS011;3740;50.700;7.184;2023-12-28T08:31:23;4.63;;;2.37;;
7398;SDS011;3740;50.700;7.184;2023-12-28T08:33:48;4.43;;;2.47;;
7398;SDS011;3740;50.700;7.184;2023-12-28T08:36:14;4.23;;;2.70;;
7398;SDS011;3740;50.700;7.184;2023-12-28T08:38:42;5.13;;;2.70;;
7398;SDS011;3740;50.700;7.184;2023-12-28T08:41:17;3.33;;;2.30;;
7398;SDS011;3740;50.700;7.184;2023-12-28T08:43:46;4.83;;;2.50;;
7398;SDS011;3740;50.700;7.184;2023-12-28T08:46:12;3.10;;;2.80;;
7398;SDS011;3740;50.700;7.184;2023-12-28T08:48:38;4.10;;;2.57;;
7398;SDS011;3740;50.700;7.184;2023-12-28T08:51:03;3.60;;;2.70;;
7398;SDS011;3740;50.700;7.184;2023-12-28T08:53:29;5.67;;;3.10;;
7398;SDS011;3740;50.700;7.184;2023-12-28T08:55:55;5.43;;;2.73;;
7398;SDS011;3740;50.700;7.184;2023-12-28T08:58:20;4.60;;;2.73;;
7398;SDS011;3740;50.700;7.184;2023-12-28T09:00:46;5.23;;;3.07;;
7398;SDS011;3740;50.700;7.184;2023-12-28T09:03:12;3.50;;;2.40;;
7398;SDS011;3740;50.700;7.184;2023-12-28T09:05:38;3.90;;;2.60;;
7398;SDS011;3740;50.700;7.184;2023-12-28T09:08:04;4.93;;;2.87;;
7398;SDS011;3740;50.700;7.184;2023-12-28T09:10:29;3.57;;;2.87;;
7398;SDS011;3740;50.700;7.184;2023-12-28T09:12:55;4.17;;;2.63;;
7398;SDS011;3740;50.700;7.184;2023-12-28T09:15:21;4.27;;;2.40;;
7398;SDS011;3740;50.700;7.184;2023-12-28T09:17:46;3.73;;;2.70;;
7398;SDS011;3740;50.700;7.184;2023-12-28T09:20:12;3.57;;;2.70;;
7398;SDS011;3740;50.700;7.184;2023-12-28T09:22:37;5.70;;;2.90;;
7398;SDS011;3740;50.700;7.184;2023-12-28T09:25:03;4.20;;;2.50;;
7398;SDS011;3740;50.700;7.184;2023-12-28T09:27:30;7.13;;;3.17;;
7398;SDS011;3740;50.700;7.184;2023-12-28T09:29:55;8.67;;;2.83;;
7398;SDS011;3740;50.700;7.184;2023-12-28T09:32:21;4.73;;;2.73;;
7398;SDS011;3740;50.700;7.184;2023-12-28T09:34:46;4.33;;;2.40;;
7398;SDS011;3740;50.700;7.184;2023-12-28T09:37:12;5.13;;;2.70;;
7398;SDS011;3740;50.700;7.184;2023-12-28T09:39:37;3.33;;;2.40;;
7398;SDS011;3740;50.700;7.184;2023-12-28T09:42:06;4.30;;;2.60;;
7398;SDS011;3740;50.700;7.184;2023-12-28T09:44:39;4.53;;;2.63;;
7398;SDS011;3740;50.700;7.184;2023-12-28T09:47:08;2.63;;;2.30;;
7398;SDS011;3740;50.700;7.184;2023-12-28T09:49:37;3.73;;;2.63;;
7398;SDS011;3740;50.700;7.184;2023-12-28T09:52:04;4.07;;;2.40;;
7398;SDS011;3740;50.700;7.184;2023-12-28T09:54:30;5.93;;;2.43;;
7398;SDS011;3740;50.700;7.184;2023-12-28T09:56:56;3.23;;;2.00;;
7398;SDS011;3740;50.700;7.184;2023-12-28T09:59:22;3.37;;;2.17;;
7398;SDS011;3740;50.700;7.184;2023-12-28T10:01:49;3.47;;;2.67;;
7398;SDS011;3740;50.700;7.184;2023-12-28T10:04:15;4.33;;;2.23;;
7398;SDS011;3740;50.700;7.184;2023-12-28T10:06:41;5.27;;;2.50;;
7398;SDS011;3740;50.700;7.184;2023-12-28T10:09:07;3.53;;;2.50;;
7398;SDS011;3740;50.700;7.184;2023-12-28T10:11:33;3.63;;;2.60;;
7398;SDS011;3740;50.700;7.184;2023-12-28T10:13:58;3.37;;;2.50;;
7398;SDS011;3740;50.700;7.184;2023-12-28T10:16:24;2.90;;;2.57;;
7398;SDS011;3740;50.700;7.184;2023-12-28T10:18:50;3.37;;;2.60;;
7398;SDS011;3740;50.700;7.184;2023-12-28T10:21:17;3.47;;;2.37;;
7398;SDS011;3740;50.700;7.184;2023-12-28T10:23:43;3.90;;;2.37;;
7398;SDS011;3740;50.700;7.184;2023-12-28T10:26:09;5.33;;;2.70;;
7398;SDS011;3740;50.700;7.184;2023-12-28T10:28:35;5.60;;;2.57;;
7398;SDS011;3740;50.700;7.184;2023-12-28T10:31:04;3.00;;;2.40;;
7398;SDS011;3740;50.700;7.184;2023-12-28T10:33:36;3.40;;;2.50;;
7398;SDS011;3740;50.700;7.184;2023-12-28T10:36:06;3.03;;;2.50;;
7398;SDS011;3740;50.700;7.184;2023-12-28T10:38:36;3.07;;;2.17;;
7398;SDS011;3740;50.700;7.184;2023-12-28T10:41:11;5.13;;;2.50;;
7398;SDS011;3740;50.700;7.184;2023-12-28T10:43:58;6.90;;;2.60;;
7398;SDS011;3740;50.700;7.184;2023-12-28T10:46:31;3.87;;;2.43;;
7398;SDS011;3740;50.700;7.184;2023-12-28T10:49:05;5.63;;;2.70;;
7398;SDS011;3740;50.700;7.184;2023-12-28T10:51:35;4.33;;;2.20;;
7398;SDS011;3740;50.700;7.184;2023-12-28T10:54:25;4.43;;;2.37;;
7398;SDS011;3740;50.700;7.184;2023-12-28T10:57:00;5.03;;;2.17;;
7398;SDS011;3740;50.700;7.184;2023-12-28T11:02:16;4.63;;;2.25;;
7398;SDS011;3740;50.700;7.184;2023-12-28T11:04:50;4.63;;;2.13;;
7398;SDS011;3740;50.700;7.184;2023-12-28T11:07:17;3.97;;;2.50;;
7398;SDS011;3740;50.700;7.184;2023-12-28T11:09:44;3.53;;;2.20;;
7398;SDS011;3740;50.700;7.184;2023-12-28T11:12:10;4.82;;;2.35;;
7398;SDS011;3740;50.700;7.184;2023-12-28T11:14:39;3.65;;;2.35;;
7398;SDS011;3740;50.700;7.184;2023-12-28T11:17:06;4.82;;;2.20;;
7398;SDS011;3740;50.700;7.184;2023-12-28T11:19:32;3.70;;;2.13;;
7398;SDS011;3740;50.700;7.184;2023-12-28T11:22:01;3.40;;;2.10;;
7398;SDS011;3740;50.700;7.184;2023-12-28T11:24:28;5.20;;;2.25;;
7398;SDS011;3740;50.700;7.184;2023-12-28T11:26:54;3.53;;;2.25;;
7398;SDS011;3740;50.700;7.184;2023-12-28T11:29:20;3.33;;;2.22;;
7398;SDS011;3740;50.700;7.184;2023-12-28T11:31:57;3.67;;;2.40;;
7398;SDS011;3740;50.700;7.184;2023-12-28T11:34:32;3.22;;;2.00;;
7398;SDS011;3740;50.700;7.184;2023-12-28T11:37:05;2.63;;;1.98;;
7398;SDS011;3740;50.700;7.184;2023-12-28T11:39:34;3.47;;;2.42;;
7398;SDS011;3740;50.700;7.184;2023-12-28T11:42:01;3.67;;;2.20;;
7398;SDS011;3740;50.700;7.184;2023-12-28T11:45:16;4.30;;;2.40;;
7398;SDS011;3740;50.700;7.184;2023-12-28T11:47:25;3.70;;;2.05;;
7398;SDS011;3740;50.700;7.184;2023-12-28T11:49:52;4.90;;;2.03;;
7398;SDS011;3740;50.700;7.184;2023-12-28T11:52:31;4.80;;;2.30;;
7398;SDS011;3740;50.700;7.184;2023-12-28T11:54:59;2.70;;;2.07;;
7398;SDS011;3740;50.700;7.184;2023-12-28T11:57:26;4.88;;;2.38;;
7398;SDS011;3740;50.700;7.184;2023-12-28T11:59:56;3.92;;;2.42;;
7398;SDS011;3740;50.700;7.184;2023-12-28T12:02:23;4.83;;;2.37;;
7398;SDS011;3740;50.700;7.184;2023-12-28T12:04:51;5.07;;;2.50;;
7398;SDS011;3740;50.700;7.184;2023-12-28T12:07:18;4.57;;;2.47;;
7398;SDS011;3740;50.700;7.184;2023-12-28T12:09:44;4.67;;;2.53;;
7398;SDS011;3740;50.700;7.184;2023-12-28T12:12:10;3.55;;;2.70;;
7398;SDS011;3740;50.700;7.184;2023-12-28T12:14:36;5.03;;;2.50;;
7398;SDS011;3740;50.700;7.184;2023-12-28T12:17:02;4.90;;;2.27;;
7398;SDS011;3740;50.700;7.184;2023-12-28T12:19:28;5.07;;;2.03;;
7398;SDS011;3740;50.700;7.184;2023-12-28T12:21:54;5.22;;;2.38;;
7398;SDS011;3740;50.700;7.184;2023-12-28T12:24:20;3.93;;;2.40;;
7398;SDS011;3740;50.700;7.184;2023-12-28T12:26:47;3.23;;;2.33;;
7398;SDS011;3740;50.700;7.184;2023-12-28T12:29:13;3.17;;;1.73;;
7398;SDS011;3740;50.700;7.184;2023-12-28T12:31:39;3.50;;;1.87;;
7398;SDS011;3740;50.700;7.184;2023-12-28T12:34:10;5.30;;;2.30;;
7398;SDS011;3740;50.700;7.184;2023-12-28T12:36:36;3.63;;;2.03;;
7398;SDS011;3740;50.700;7.184;2023-12-28T12:39:02;4.60;;;2.57;;
7398;SDS011;3740;50.700;7.184;2023-12-28T12:41:31;3.33;;;2.10;;
7398;SDS011;3740;50.700;7.184;2023-12-28T12:44:00;2.83;;;2.13;;
7398;SDS011;3740;50.700;7.184;2023-12-28T12:46:25;4.37;;;2.30;;
7398;SDS011;3740;50.700;7.184;2023-12-28T12:48:58;5.40;;;2.10;;
7398;SDS011;3740;50.700;7.184;2023-12-28T12:51:25;3.90;;;2.30;;
7398;SDS011;3740;50.700;7.184;2023-12-28T12:53:57;4.77;;;3.40;;
7398;SDS011;3740;50.700;7.184;2023-12-28T12:56:25;4.93;;;2.50;;
7398;SDS011;3740;50.700;7.184;2023-12-28T12:58:52;4.47;;;2.10;;
7398;SDS011;3740;50.700;7.184;2023-12-28T13:01:18;5.20;;;2.33;;
7398;SDS011;3740;50.700;7.184;2023-12-28T13:03:45;4.97;;;2.40;;
7398;SDS011;3740;50.700;7.184;2023-12-28T13:06:11;6.00;;;2.30;;
7398;SDS011;3740;50.700;7.184;2023-12-28T13:08:36;5.07;;;2.40;;
7398;SDS011;3740;50.700;7.184;2023-12-28T13:11:02;3.37;;;2.27;;
7398;SDS011;3740;50.700;7.184;2023-12-28T13:13:28;4.03;;;2.30;;
7398;SDS011;3740;50.700;7.184;2023-12-28T13:15:53;3.40;;;2.10;;
7398;SDS011;3740;50.700;7.184;2023-12-28T13:18:19;3.73;;;2.27;;
7398;SDS011;3740;50.700;7.184;2023-12-28T13:20:44;4.63;;;2.47;;
7398;SDS011;3740;50.700;7.184;2023-12-28T13:23:11;3.97;;;1.90;;
7398;SDS011;3740;50.700;7.184;2023-12-28T13:25:37;2.93;;;2.07;;
7398;SDS011;3740;50.700;7.184;2023-12-28T13:28:02;5.73;;;2.13;;
7398;SDS011;3740;50.700;7.184;2023-12-28T13:30:28;5.50;;;2.13;;
7398;SDS011;3740;50.700;7.184;2023-12-28T13:32:54;4.40;;;1.90;;
7398;SDS011;3740;50.700;7.184;2023-12-28T13:35:23;5.63;;;2.20;;
7398;SDS011;3740;50.700;7.184;2023-12-28T13:37:48;4.57;;;2.40;;
7398;SDS011;3740;50.700;7.184;2023-12-28T13:40:14;4.53;;;2.23;;
7398;SDS011;3740;50.700;7.184;2023-12-28T13:42:40;5.10;;;2.57;;
7398;SDS011;3740;50.700;7.184;2023-12-28T13:45:06;4.03;;;2.30;;
7398;SDS011;3740;50.700;7.184;2023-12-28T13:47:32;4.33;;;2.50;;
7398;SDS011;3740;50.700;7.184;2023-12-28T13:49:58;4.97;;;2.60;;
7398;SDS011;3740;50.700;7.184;2023-12-28T13:52:24;4.47;;;2.37;;
7398;SDS011;3740;50.700;7.184;2023-12-28T13:54:49;4.63;;;2.33;;
7398;SDS011;3740;50.700;7.184;2023-12-28T13:57:15;4.73;;;2.23;;
7398;SDS011;3740;50.700;7.184;2023-12-28T13:59:40;5.17;;;2.37;;
7398;SDS011;3740;50.700;7.184;2023-12-28T14:02:06;3.67;;;2.13;;
7398;SDS011;3740;50.700;7.184;2023-12-28T14:04:31;6.43;;;2.57;;
7398;SDS011;3740;50.700;7.184;2023-12-28T14:06:57;4.50;;;2.40;;
7398;SDS011;3740;50.700;7.184;2023-12-28T14:09:22;4.87;;;2.47;;
7398;SDS011;3740;50.700;7.184;2023-12-28T14:11:48;4.53;;;2.30;;
7398;SDS011;3740;50.700;7.184;2023-12-28T14:14:14;3.70;;;2.27;;
7398;SDS011;3740;50.700;7.184;2023-12-28T14:16:40;4.33;;;2.27;;
7398;SDS011;3740;50.700;7.184;2023-12-28T14:19:05;3.90;;;2.40;;
7398;SDS011;3740;50.700;7.184;2023-12-28T14:21:38;4.20;;;2.50;;
7398;SDS011;3740;50.700;7.184;2023-12-28T14:24:04;6.57;;;3.13;;
7398;SDS011;3740;50.700;7.184;2023-12-28T14:26:31;6.50;;;3.00;;
7398;SDS011;3740;50.700;7.184;2023-12-28T14:28:58;4.10;;;2.17;;
7398;SDS011;3740;50.700;7.184;2023-12-28T14:31:24;4.53;;;2.30;;
7398;SDS011;3740;50.700;7.184;2023-12-28T14:33:51;5.77;;;2.40;;
7398;SDS011;3740;50.700;7.184;2023-12-28T14:36:27;3.77;;;2.30;;
7398;SDS011;3740;50.700;7.184;2023-12-28T14:39:01;4.93;;;2.47;;
7398;SDS011;3740;50.700;7.184;2023-12-28T14:41:32;6.73;;;2.60;;
7398;SDS011;3740;50.700;7.184;2023-12-28T14:43:58;5.87;;;2.43;;
7398;SDS011;3740;50.700;7.184;2023-12-28T14:46:24;5.47;;;2.83;;
7398;SDS011;3740;50.700;7.184;2023-12-28T14:48:51;7.27;;;2.77;;
7398;SDS011;3740;50.700;7.184;2023-12-28T14:51:17;4.60;;;2.47;;
7398;SDS011;3740;50.700;7.184;2023-12-28T14:53:42;3.90;;;2.17;;
7398;SDS011;3740;50.700;7.184;2023-12-28T14:56:09;5.13;;;2.70;;
7398;SDS011;3740;50.700;7.184;2023-12-28T14:58:35;6.07;;;2.10;;
7398;SDS011;3740;50.700;7.184;2023-12-28T15:01:01;5.87;;;2.67;;
7398;SDS011;3740;50.700;7.184;2023-12-28T15:03:26;6.37;;;2.30;;
7398;SDS011;3740;50.700;7.184;2023-12-28T15:05:52;6.47;;;2.53;;
7398;SDS011;3740;50.700;7.184;2023-12-28T15:08:18;3.40;;;2.03;;
7398;SDS011;3740;50.700;7.184;2023-12-28T15:10:44;4.47;;;2.70;;
7398;SDS011;3740;50.700;7.184;2023-12-28T15:13:10;5.50;;;2.37;;
7398;SDS011;3740;50.700;7.184;2023-12-28T15:15:36;4.43;;;2.30;;